Terminal Aerodrome Forecast
Issued by NWS Paducah, KY

Home | Current Version | Previous Version | Text Only | Print | Product List | Glossary On
Versions: 1 2 3 4 5 6 7 8 9 10 11 12 13 14
723
FTUS43 KPAH 232327
TAFEVV
TAF
KEVV 232327Z 2400/2424 11003KT P6SM FEW060 SCT250
     FM241500 19005KT P6SM FEW040 BKN250
     FM242000 20007KT P6SM SCT050 BKN080=

USA.gov is the U.S. government's official web portal to all federal, state and local government web resources and services.